Time;durP1;ratioP1;P1;durP2;ratioP2;P2;SDS_P1;SDS_P2;PMS_P1;PMS_P2;Temp;Humidity;BMP_temperature;BMP_pressure;BME280_temperature;BME280_humidity;BME280_pressure;Samples;Min_cycle;Max_cycle;Signal;HPM_P1;HPM_P2
2022/09/23 00:00:36;;;;;;;10.18;6.30;;;10.70;99.90;;;;;;5054380;28;20068;-73
2022/09/23 00:03:02;;;;;;;9.45;6.20;;;10.70;99.90;;;;;;5053604;28;20040;-72
2022/09/23 00:05:29;;;;;;;7.75;5.55;;;10.60;99.90;;;;;;5037563;28;20127;-72
2022/09/23 00:07:55;;;;;;;8.35;5.18;;;10.60;99.90;;;;;;5052346;28;20524;-72
2022/09/23 00:10:22;;;;;;;8.13;5.22;;;10.60;99.90;;;;;;5054141;28;20044;-73
2022/09/23 00:12:48;;;;;;;8.13;5.75;;;10.50;99.90;;;;;;5052302;28;20528;-72
2022/09/23 00:15:14;;;;;;;9.23;6.07;;;10.50;99.90;;;;;;5039928;28;20093;-73
2022/09/23 00:17:40;;;;;;;9.40;6.18;;;10.50;99.90;;;;;;5042026;28;20039;-73
2022/09/23 00:20:08;;;;;;;8.45;6.18;;;10.50;99.90;;;;;;5037408;28;20547;-73
2022/09/23 00:22:36;;;;;;;8.82;6.30;;;10.50;99.90;;;;;;5052842;28;20086;-72
2022/09/23 00:25:04;;;;;;;9.45;5.70;;;10.40;99.90;;;;;;5053759;28;20045;-73
2022/09/23 00:27:30;;;;;;;7.97;5.60;;;10.40;99.90;;;;;;5070848;28;20485;-73
2022/09/23 00:29:56;;;;;;;8.68;5.60;;;10.30;99.90;;;;;;5054065;28;20048;-72
2022/09/23 00:32:21;;;;;;;9.15;5.72;;;10.30;99.90;;;;;;5052467;28;20033;-73
2022/09/23 00:34:47;;;;;;;8.85;5.57;;;10.30;99.90;;;;;;5053723;28;20103;-73
2022/09/23 00:37:13;;;;;;;11.13;6.30;;;10.30;99.90;;;;;;5053637;28;20045;-72
2022/09/23 00:39:39;;;;;;;10.45;6.63;;;10.30;99.90;;;;;;5053598;28;20090;-73
2022/09/23 00:42:08;;;;;;;8.20;6.28;;;10.30;99.90;;;;;;5051428;28;20037;-73
2022/09/23 00:44:39;;;;;;;9.32;6.50;;;10.30;99.90;;;;;;5035772;28;20491;-72
2022/09/23 00:47:12;;;;;;;9.27;5.95;;;10.30;99.90;;;;;;5043989;28;20515;-73
2022/09/23 00:49:38;;;;;;;12.02;6.75;;;10.30;99.90;;;;;;5052690;28;20080;-73
2022/09/23 00:52:13;;;;;;;8.75;6.75;;;10.20;99.90;;;;;;5052161;28;20072;-73
2022/09/23 00:54:40;;;;;;;10.05;6.20;;;10.20;99.90;;;;;;5053665;28;20041;-73
2022/09/23 00:57:07;;;;;;;10.38;7.00;;;10.20;99.90;;;;;;5069907;28;20051;-72
2022/09/23 00:59:34;;;;;;;9.40;6.63;;;10.20;99.90;;;;;;5053252;28;20067;-73
2022/09/23 01:02:01;;;;;;;9.88;6.90;;;10.10;99.90;;;;;;5050993;28;20511;-73
2022/09/23 01:04:28;;;;;;;11.50;7.28;;;10.10;99.90;;;;;;5053102;28;20048;-72
2022/09/23 01:06:54;;;;;;;11.80;7.05;;;10.10;99.90;;;;;;5053032;28;20077;-72
2022/09/23 01:09:21;;;;;;;10.40;7.18;;;10.00;99.90;;;;;;5053101;28;20068;-72
2022/09/23 01:12:22;;;;;;;12.45;7.18;;;10.00;99.90;;;;;;5051899;28;20124;-72
2022/09/23 01:15:09;;;;;;;8.15;5.63;;;10.00;99.90;;;;;;5032184;28;20540;-73
2022/09/23 01:18:02;;;;;;;8.45;5.97;;;10.10;99.90;;;;;;5051948;28;20045;-73
2022/09/23 01:20:49;;;;;;;10.23;6.40;;;10.10;99.90;;;;;;5053156;28;20045;-72
2022/09/23 01:24:02;;;;;;;8.95;5.68;;;10.00;99.90;;;;;;5068719;28;20052;-72
2022/09/23 01:26:45;;;;;;;8.55;6.22;;;10.00;99.90;;;;;;5052656;28;20048;-72
2022/09/23 01:29:32;;;;;;;8.50;6.43;;;10.00;99.90;;;;;;5069439;28;20044;-72
2022/09/23 01:32:25;;;;;;;8.82;6.30;;;10.00;99.90;;;;;;5068164;28;20051;-72
2022/09/23 01:35:27;;;;;;;10.43;6.57;;;10.10;99.90;;;;;;5052578;28;20493;-72
2022/09/23 01:38:32;;;;;;;10.50;6.63;;;10.00;99.90;;;;;;5058423;28;20060;-72
2022/09/23 01:41:25;;;;;;;11.25;5.93;;;10.10;99.90;;;;;;5042003;28;20041;-72
2022/09/23 01:43:57;;;;;;;7.53;5.78;;;10.00;99.90;;;;;;5032071;28;20041;-72
2022/09/23 01:46:38;;;;;;;8.32;6.00;;;10.00;99.90;;;;;;5051537;28;20037;-72
2022/09/23 01:49:19;;;;;;;9.77;5.68;;;9.90;99.90;;;;;;5052374;28;20040;-72
2022/09/23 01:51:49;;;;;;;9.52;6.18;;;10.00;99.90;;;;;;5051477;28;20033;-72
2022/09/23 01:54:30;;;;;;;9.68;6.07;;;9.90;99.90;;;;;;5050978;28;20048;-72
2022/09/23 01:57:17;;;;;;;8.40;5.80;;;9.90;99.90;;;;;;5052093;28;20535;-72
2022/09/23 01:59:50;;;;;;;8.93;6.15;;;9.90;99.90;;;;;;5051473;28;20049;-72
2022/09/23 02:02:32;;;;;;;9.27;6.85;;;9.90;99.90;;;;;;5051041;28;20124;-72
2022/09/23 02:05:20;;;;;;;10.27;6.60;;;9.90;99.90;;;;;;5031071;28;20037;-72
2022/09/23 02:07:56;;;;;;;8.48;6.20;;;9.90;99.90;;;;;;5047536;28;20040;-72
2022/09/23 02:10:27;;;;;;;9.95;6.35;;;9.90;99.90;;;;;;5051302;28;20060;-72
2022/09/23 02:13:01;;;;;;;9.70;7.22;;;9.90;99.90;;;;;;5049931;28;20059;-72
2022/09/23 02:15:34;;;;;;;9.13;6.40;;;9.90;99.90;;;;;;5055513;28;20053;-72
2022/09/23 02:18:12;;;;;;;9.13;7.15;;;9.90;99.90;;;;;;5061217;28;20132;-72
2022/09/23 02:20:40;;;;;;;10.05;7.90;;;9.90;99.90;;;;;;5051965;28;20147;-72
2022/09/23 02:23:18;;;;;;;10.48;7.40;;;9.90;99.90;;;;;;5029655;28;20083;-72
2022/09/23 02:25:56;;;;;;;9.77;7.50;;;9.80;99.90;;;;;;5064910;28;20132;-72
2022/09/23 02:28:49;;;;;;;9.60;7.60;;;9.90;99.90;;;;;;5050002;28;20056;-72
2022/09/23 02:31:53;;;;;;;10.02;7.63;;;9.80;99.90;;;;;;5050478;28;20070;-72
2022/09/23 02:34:56;;;;;;;11.35;8.32;;;9.80;99.90;;;;;;5031421;28;20048;-72
2022/09/23 02:37:25;;;;;;;11.57;8.15;;;9.80;99.90;;;;;;5040545;28;20040;-72
2022/09/23 02:40:22;;;;;;;10.95;8.98;;;9.80;99.90;;;;;;5034474;28;20033;-72
2022/09/23 02:42:59;;;;;;;10.18;8.20;;;9.80;99.90;;;;;;5049189;28;20059;-72
2022/09/23 02:45:25;;;;;;;12.18;8.57;;;9.80;99.90;;;;;;5049247;28;20397;-72
2022/09/23 02:47:56;;;;;;;11.55;8.43;;;9.90;99.90;;;;;;5046461;28;20033;-72
2022/09/23 02:50:21;;;;;;;11.10;9.20;;;9.90;99.90;;;;;;5030311;28;20080;-72
2022/09/23 02:52:48;;;;;;;11.02;8.63;;;9.90;99.90;;;;;;5032738;28;20077;-72
2022/09/23 02:55:16;;;;;;;11.60;8.40;;;9.90;99.90;;;;;;5049084;28;20041;-72
2022/09/23 02:57:43;;;;;;;9.90;8.75;;;9.80;99.90;;;;;;5050614;28;20036;-72
2022/09/23 03:00:09;;;;;;;11.63;8.38;;;9.80;99.90;;;;;;5050481;28;20374;-71
2022/09/23 03:02:50;;;;;;;10.93;8.43;;;9.80;99.90;;;;;;5049998;28;20044;-72
2022/09/23 03:05:31;;;;;;;10.18;8.07;;;9.80;99.90;;;;;;5048646;28;20065;-72
2022/09/23 03:08:17;;;;;;;12.10;8.73;;;9.80;99.90;;;;;;5054736;28;20041;-72
2022/09/23 03:10:43;;;;;;;11.07;8.50;;;9.70;99.90;;;;;;5047975;28;20044;-72
2022/09/23 03:13:29;;;;;;;13.38;8.57;;;9.70;99.90;;;;;;5049023;28;20507;-72
2022/09/23 03:16:42;;;;;;;10.10;8.57;;;9.60;99.90;;;;;;5034905;28;20107;-72
2022/09/23 03:19:25;;;;;;;12.32;8.80;;;9.60;99.90;;;;;;5049957;28;20080;-72
2022/09/23 03:22:12;;;;;;;11.15;9.13;;;9.60;99.90;;;;;;5051857;28;20029;-72
2022/09/23 03:24:43;;;;;;;9.98;8.70;;;9.70;99.90;;;;;;5051833;28;20057;-72
2022/09/23 03:27:16;;;;;;;12.10;9.20;;;9.60;99.90;;;;;;5028943;28;20128;-72
2022/09/23 03:29:48;;;;;;;10.93;9.05;;;9.60;99.90;;;;;;5055035;28;20512;-72
2022/09/23 03:32:15;;;;;;;;;;;9.60;99.90;;;;;;5053507;28;20045;-72
2022/09/23 03:34:42;;;;;;;11.13;8.88;;;9.60;99.90;;;;;;5035203;28;19916;-73
2022/09/23 03:37:17;;;;;;;11.90;9.70;;;9.60;99.90;;;;;;5052603;28;20044;-72
2022/09/23 03:40:21;;;;;;;10.82;8.45;;;9.60;99.90;;;;;;5053923;28;20086;-72
2022/09/23 03:42:47;;;;;;;11.65;8.65;;;9.50;99.90;;;;;;5049985;28;20045;-72
2022/09/23 03:45:21;;;;;;;11.75;8.82;;;9.50;99.90;;;;;;5053861;28;20562;-72
2022/09/23 03:47:46;;;;;;;11.35;9.07;;;9.50;99.90;;;;;;5050586;28;20041;-72
2022/09/23 03:50:13;;;;;;;11.93;9.32;;;9.50;99.90;;;;;;5038403;28;20413;-72
2022/09/23 03:52:39;;;;;;;12.20;10.32;;;9.50;99.90;;;;;;5052599;28;20090;-72
2022/09/23 03:55:06;;;;;;;14.82;10.05;;;9.50;99.90;;;;;;5052418;28;20041;-72
2022/09/23 03:57:31;;;;;;;11.63;9.85;;;9.50;99.90;;;;;;5052669;28;20041;-72
2022/09/23 03:59:57;;;;;;;12.68;10.55;;;9.50;99.90;;;;;;5052224;28;20033;-72
2022/09/23 04:02:23;;;;;;;13.07;10.35;;;9.50;99.90;;;;;;5052475;28;20041;-72
2022/09/23 04:04:48;;;;;;;12.02;10.18;;;9.50;99.90;;;;;;5035457;28;20029;-72
2022/09/23 04:07:14;;;;;;;11.43;9.77;;;9.50;99.90;;;;;;5043331;28;20125;-72
2022/09/23 04:09:40;;;;;;;12.82;9.82;;;9.40;99.90;;;;;;5044316;28;20073;-72
2022/09/23 04:12:06;;;;;;;12.15;9.65;;;9.50;99.90;;;;;;5038817;28;20033;-73
2022/09/23 04:14:32;;;;;;;11.35;9.65;;;9.40;99.90;;;;;;5051107;28;20045;-72
2022/09/23 04:16:58;;;;;;;10.77;9.20;;;9.40;99.90;;;;;;5035695;28;20041;-72
2022/09/23 04:19:24;;;;;;;11.50;9.35;;;9.40;99.90;;;;;;5050581;28;20048;-72
2022/09/23 04:21:49;;;;;;;11.60;9.88;;;9.30;99.90;;;;;;5048906;28;20033;-72
2022/09/23 04:24:15;;;;;;;10.68;9.00;;;9.30;99.90;;;;;;5035967;28;20527;-72
2022/09/23 04:26:42;;;;;;;10.23;8.43;;;9.20;99.90;;;;;;5051625;28;20040;-72
2022/09/23 04:29:09;;;;;;;14.35;10.50;;;9.20;99.90;;;;;;5053054;28;20057;-72
2022/09/23 04:31:35;;;;;;;12.20;10.40;;;9.30;99.90;;;;;;5068643;28;20465;-72
2022/09/23 04:34:00;;;;;;;12.93;10.48;;;9.30;99.90;;;;;;5033905;28;20079;-72
2022/09/23 04:36:28;;;;;;;14.45;11.07;;;9.30;99.90;;;;;;5051724;28;20068;-72
2022/09/23 04:38:53;;;;;;;13.93;11.02;;;9.20;99.90;;;;;;5027975;28;20065;-72
2022/09/23 04:41:19;;;;;;;14.52;11.32;;;9.30;99.90;;;;;;5043803;28;20523;-72
2022/09/23 04:43:45;;;;;;;14.63;11.20;;;9.30;99.90;;;;;;5050363;28;20035;-72
2022/09/23 04:46:14;;;;;;;14.20;11.40;;;9.30;99.90;;;;;;5047717;28;20393;-72
2022/09/23 04:48:40;;;;;;;12.73;11.20;;;9.30;99.90;;;;;;5051740;28;20029;-72
2022/09/23 04:51:15;;;;;;;13.70;11.38;;;9.40;99.90;;;;;;5053641;28;20052;-72
2022/09/23 04:53:42;;;;;;;11.90;10.70;;;9.40;99.90;;;;;;5035407;28;20401;-72
2022/09/23 04:56:22;;;;;;;15.02;11.20;;;9.40;99.90;;;;;;5052151;28;20041;-72
2022/09/23 04:58:49;;;;;;;13.82;10.88;;;9.40;99.90;;;;;;5050926;28;20090;-72
2022/09/23 05:01:25;;;;;;;14.48;11.10;;;9.50;99.90;;;;;;5035349;28;20037;-72
2022/09/23 05:03:53;;;;;;;13.93;11.10;;;9.50;99.90;;;;;;5045724;28;20029;-72
2022/09/23 05:06:20;;;;;;;14.68;11.13;;;9.50;99.90;;;;;;5033887;28;20557;-72
2022/09/23 05:08:51;;;;;;;14.48;11.55;;;9.50;99.90;;;;;;5040954;28;20045;-72
2022/09/23 05:11:17;;;;;;;12.88;11.07;;;9.60;99.90;;;;;;5053355;28;20408;-72
2022/09/23 05:13:44;;;;;;;12.32;11.02;;;9.60;99.90;;;;;;5048983;28;20397;-71
2022/09/23 05:16:11;;;;;;;13.05;11.13;;;9.60;99.90;;;;;;5035412;28;20118;-72
2022/09/23 05:18:41;;;;;;;13.55;10.70;;;9.60;99.90;;;;;;5049954;28;20032;-72
2022/09/23 05:21:09;;;;;;;13.90;11.80;;;9.60;99.90;;;;;;5051692;28;20484;-72
2022/09/23 05:23:35;;;;;;;14.02;11.88;;;9.60;99.90;;;;;;5043110;28;20036;-72
2022/09/23 05:26:07;;;;;;;14.15;11.20;;;9.60;99.90;;;;;;5051982;28;20401;-72
2022/09/23 05:28:33;;;;;;;13.63;10.80;;;9.60;99.90;;;;;;5051187;28;20407;-72
2022/09/23 05:31:05;;;;;;;13.23;11.27;;;9.60;99.90;;;;;;5064775;28;20045;-72
2022/09/23 05:33:31;;;;;;;12.45;11.13;;;9.60;99.90;;;;;;5032229;28;20040;-72
2022/09/23 05:35:57;;;;;;;14.23;10.85;;;9.60;99.90;;;;;;5034203;28;20047;-72
2022/09/23 05:38:23;;;;;;;12.30;10.57;;;9.70;99.90;;;;;;5034673;28;20032;-72
2022/09/23 05:41:07;;;;;;;12.65;11.10;;;9.70;99.90;;;;;;5051323;28;20037;-72
2022/09/23 05:43:34;;;;;;;13.85;10.85;;;9.60;99.90;;;;;;5066830;28;20386;-72
2022/09/23 05:46:22;;;;;;;13.52;11.48;;;9.70;99.90;;;;;;5030919;28;20036;-72
2022/09/23 05:48:47;;;;;;;13.20;10.48;;;9.70;99.90;;;;;;5031798;28;20568;-72
2022/09/23 05:51:22;;;;;;;12.77;10.95;;;9.70;99.90;;;;;;5049467;28;20124;-72
2022/09/23 05:53:51;;;;;;;13.90;10.80;;;9.70;99.90;;;;;;5034402;28;20037;-72
2022/09/23 05:56:21;;;;;;;12.80;11.13;;;9.70;99.90;;;;;;5034723;28;20045;-72
2022/09/23 05:58:49;;;;;;;12.57;11.27;;;9.60;99.90;;;;;;5042705;28;20034;-72
2022/09/23 06:01:17;;;;;;;13.23;10.85;;;9.60;99.90;;;;;;5049846;28;20037;-72
2022/09/23 06:03:50;;;;;;;14.35;11.15;;;9.50;99.90;;;;;;5051802;28;20041;-72
2022/09/23 06:06:26;;;;;;;13.52;10.93;;;9.50;99.90;;;;;;5044625;28;20040;-72
2022/09/23 06:08:52;;;;;;;14.15;11.45;;;9.50;99.90;;;;;;5028817;28;20090;-72
2022/09/23 06:11:18;;;;;;;15.13;11.57;;;9.50;99.90;;;;;;5048045;28;20439;-72
2022/09/23 06:13:43;;;;;;;13.18;10.60;;;9.50;99.90;;;;;;5027724;28;20038;-72
2022/09/23 06:16:12;;;;;;;15.25;11.43;;;9.60;99.90;;;;;;5047288;28;20063;-72
2022/09/23 06:18:39;;;;;;;14.75;10.40;;;9.80;99.90;;;;;;5050585;28;20065;-72
2022/09/23 06:21:06;;;;;;;12.98;11.57;;;9.90;99.90;;;;;;5036981;28;20052;-72
2022/09/23 06:23:32;;;;;;;13.60;11.07;;;9.90;99.90;;;;;;5033211;28;20548;-72
2022/09/23 06:26:03;;;;;;;14.32;11.57;;;10.00;99.90;;;;;;5045508;28;20047;-72
2022/09/23 06:28:33;;;;;;;14.13;11.38;;;10.00;99.90;;;;;;5035328;28;20397;-72
2022/09/23 06:31:02;;;;;;;13.23;11.77;;;10.10;99.90;;;;;;5045389;28;20119;-72
2022/09/23 06:33:28;;;;;;;13.95;11.38;;;10.00;99.90;;;;;;5033218;28;20408;-72
2022/09/23 06:35:56;;;;;;;14.05;11.75;;;10.10;99.90;;;;;;5049942;28;20072;-73
2022/09/23 06:38:22;;;;;;;14.80;12.45;;;10.10;99.90;;;;;;5046916;28;20029;-72
2022/09/23 06:40:52;;;;;;;15.73;11.27;;;10.10;99.90;;;;;;5051557;28;20043;-73
2022/09/23 06:43:18;;;;;;;15.40;12.02;;;10.00;99.90;;;;;;5049029;28;20045;-72
2022/09/23 06:45:43;;;;;;;15.60;12.07;;;10.10;99.90;;;;;;5034484;28;20401;-72
2022/09/23 06:48:09;;;;;;;15.85;11.82;;;10.10;99.90;;;;;;5036585;28;20488;-73
2022/09/23 06:50:35;;;;;;;13.80;10.95;;;10.20;99.90;;;;;;5055013;28;20051;-73
2022/09/23 06:53:02;;;;;;;13.60;11.93;;;10.30;99.90;;;;;;5070522;28;20091;-73
2022/09/23 06:55:27;;;;;;;14.68;11.27;;;10.30;99.90;;;;;;5053794;28;20501;-73
2022/09/23 06:57:56;;;;;;;14.95;11.63;;;10.30;99.90;;;;;;5038535;28;20029;-73
2022/09/23 07:00:23;;;;;;;14.57;12.45;;;10.40;99.90;;;;;;5035532;28;20036;-73
2022/09/23 07:02:49;;;;;;;13.45;11.68;;;10.50;99.90;;;;;;5055370;28;20375;-73
2022/09/23 07:05:15;;;;;;;14.10;12.07;;;10.50;99.90;;;;;;5035795;28;20098;-73
2022/09/23 07:07:41;;;;;;;14.18;11.82;;;10.50;99.90;;;;;;5035658;28;20051;-73
2022/09/23 07:10:07;;;;;;;13.65;11.75;;;10.50;99.90;;;;;;5055167;28;20128;-73
2022/09/23 07:12:33;;;;;;;13.32;11.77;;;10.60;99.90;;;;;;5050240;28;20112;-73
2022/09/23 07:14:58;;;;;;;14.20;12.68;;;10.60;99.90;;;;;;5054794;28;20052;-73
2022/09/23 07:17:24;;;;;;;13.70;11.52;;;10.70;99.90;;;;;;5053037;28;20087;-73
2022/09/23 07:19:53;;;;;;;16.00;12.82;;;10.70;99.90;;;;;;5053661;28;20051;-73
2022/09/23 07:22:23;;;;;;;15.05;12.18;;;10.80;99.90;;;;;;5032777;28;20040;-73
2022/09/23 07:24:49;;;;;;;15.10;12.07;;;10.70;99.90;;;;;;5041428;28;20121;-73
2022/09/23 07:27:16;;;;;;;14.45;11.43;;;10.70;99.90;;;;;;5042313;28;20124;-74
2022/09/23 07:29:46;;;;;;;11.98;8.75;;;10.80;99.90;;;;;;5054817;28;20080;-75
2022/09/23 07:32:12;;;;;;;13.68;11.55;;;10.90;99.90;;;;;;5053122;28;20037;-83
2022/09/23 07:34:37;;;;;;;15.00;11.70;;;11.00;99.90;;;;;;5053707;28;20132;-73
2022/09/23 07:37:03;;;;;;;18.00;12.90;;;11.00;99.90;;;;;;5053503;28;20037;-73
2022/09/23 07:39:29;;;;;;;13.65;12.00;;;11.10;99.90;;;;;;5054348;28;20032;-73
2022/09/23 07:41:55;;;;;;;13.55;11.30;;;11.10;99.90;;;;;;5053527;28;20071;-73
2022/09/23 07:44:20;;;;;;;13.88;11.30;;;11.10;99.90;;;;;;5036727;28;20039;-74
2022/09/23 07:46:48;;;;;;;14.18;11.18;;;11.20;99.90;;;;;;5052308;28;20040;-73
2022/09/23 07:49:14;;;;;;;14.27;11.80;;;11.20;99.90;;;;;;5038000;28;20120;-73
2022/09/23 07:51:44;;;;;;;12.80;10.77;;;11.20;99.90;;;;;;5051995;28;20067;-73
2022/09/23 07:54:12;;;;;;;13.93;11.10;;;11.20;99.90;;;;;;5051092;28;21535;-73
2022/09/23 07:56:39;;;;;;;14.15;11.20;;;11.20;99.90;;;;;;5054363;28;20047;-73
2022/09/23 07:59:07;;;;;;;16.15;10.55;;;11.30;99.90;;;;;;5036639;28;20380;-73
2022/09/23 08:01:35;;;;;;;16.73;12.05;;;11.40;99.90;;;;;;5053034;28;20045;-73
2022/09/23 08:04:07;;;;;;;14.55;11.00;;;11.50;99.90;;;;;;5053383;28;20370;-73
2022/09/23 08:06:33;;;;;;;13.68;11.25;;;11.60;99.90;;;;;;5036163;28;20052;-73
2022/09/23 08:09:00;;;;;;;12.98;10.93;;;11.60;99.90;;;;;;5053774;28;20489;-73
2022/09/23 08:11:26;;;;;;;15.07;10.90;;;11.60;99.90;;;;;;5053299;28;20040;-73
2022/09/23 08:13:53;;;;;;;13.57;11.20;;;11.60;99.90;;;;;;5052901;28;20397;-73
2022/09/23 08:16:20;;;;;;;13.23;10.95;;;11.60;99.90;;;;;;5051667;28;20049;-73
2022/09/23 08:18:45;;;;;;;15.38;10.75;;;11.60;99.90;;;;;;5035319;28;20037;-73
2022/09/23 08:21:11;;;;;;;14.32;10.75;;;11.70;99.90;;;;;;5053779;28;20131;-73
2022/09/23 08:23:37;;;;;;;12.73;10.77;;;11.70;99.90;;;;;;5035157;28;20041;-73
2022/09/23 08:26:05;;;;;;;14.13;10.70;;;11.80;99.90;;;;;;5050294;28;20401;-73
2022/09/23 08:28:32;;;;;;;13.80;10.65;;;11.70;99.90;;;;;;5051954;28;20128;-73
2022/09/23 08:30:58;;;;;;;14.70;10.85;;;11.80;99.90;;;;;;5050729;28;20079;-73
2022/09/23 08:33:24;;;;;;;14.40;11.30;;;12.00;99.90;;;;;;5034500;28;20489;-74
2022/09/23 08:35:51;;;;;;;14.10;10.43;;;12.00;99.90;;;;;;5053378;28;20095;-73
2022/09/23 08:38:16;;;;;;;13.93;11.13;;;12.10;99.90;;;;;;5053533;28;20037;-74
2022/09/23 08:40:46;;;;;;;16.42;10.35;;;12.10;99.90;;;;;;5036311;28;20043;-73
2022/09/23 08:43:31;;;;;;;13.00;10.18;;;12.20;99.90;;;;;;5035965;28;20033;-73
2022/09/23 08:46:01;;;;;;;13.52;10.35;;;12.30;99.90;;;;;;5023906;28;20068;-74
2022/09/23 08:48:34;;;;;;;12.20;9.48;;;12.30;99.90;;;;;;5053852;28;20409;-73
2022/09/23 08:51:16;;;;;;;13.18;10.00;;;12.40;99.90;;;;;;5046615;28;20040;-74
2022/09/23 08:53:44;;;;;;;14.43;10.48;;;12.40;99.90;;;;;;5051449;28;20052;-74
2022/09/23 08:56:16;;;;;;;13.68;10.38;;;12.50;99.90;;;;;;5053376;28;20044;-74
2022/09/23 08:58:51;;;;;;;13.18;10.18;;;12.60;99.90;;;;;;5048356;28;20385;-74
2022/09/23 09:01:27;;;;;;;13.43;10.63;;;12.50;99.90;;;;;;5034285;28;20041;-74
2022/09/23 09:04:10;;;;;;;12.98;10.13;;;12.50;99.90;;;;;;5034511;28;20124;-74
2022/09/23 09:06:57;;;;;;;12.85;10.07;;;12.60;99.90;;;;;;5059074;28;20124;-74
2022/09/23 09:09:31;;;;;;;13.25;9.75;;;12.60;99.90;;;;;;5035971;28;20072;-74
2022/09/23 09:12:19;;;;;;;12.55;9.75;;;12.70;99.90;;;;;;5043078;28;20115;-74
2022/09/23 09:14:56;;;;;;;14.52;10.60;;;12.70;99.90;;;;;;5034202;28;20089;-73
2022/09/23 09:17:52;;;;;;;13.48;9.10;;;12.70;99.90;;;;;;5033252;28;20040;-74
2022/09/23 09:20:27;;;;;;;14.15;10.50;;;12.80;99.90;;;;;;5069227;28;20451;-74
2022/09/23 09:22:54;;;;;;;12.98;9.50;;;12.90;99.90;;;;;;5032830;28;20130;-74
2022/09/23 09:25:27;;;;;;;13.43;10.98;;;12.90;99.90;;;;;;5042137;28;20037;-74
2022/09/23 09:27:55;;;;;;;13.05;10.18;;;12.90;99.90;;;;;;5052151;28;20044;-74
2022/09/23 09:30:23;;;;;;;13.68;9.68;;;12.90;99.90;;;;;;5050107;28;20059;-74
2022/09/23 09:32:58;;;;;;;10.85;9.30;;;13.00;99.90;;;;;;5060586;28;20524;-74
2022/09/23 09:35:33;;;;;;;14.27;10.52;;;13.00;99.90;;;;;;5047916;28;20069;-73
2022/09/23 09:38:00;;;;;;;11.80;9.95;;;13.00;99.90;;;;;;5040817;28;20048;-74
2022/09/23 09:40:26;;;;;;;12.82;9.38;;;13.00;99.90;;;;;;5068550;28;20397;-74
2022/09/23 09:42:51;;;;;;;12.23;9.80;;;13.00;99.90;;;;;;5032607;28;20039;-74
2022/09/23 09:45:23;;;;;;;13.07;9.70;;;13.10;99.90;;;;;;5054018;28;20040;-74
2022/09/23 09:48:11;;;;;;;12.60;8.95;;;13.10;99.90;;;;;;5051861;28;20045;-74
2022/09/23 09:50:54;;;;;;;13.45;9.82;;;13.10;99.90;;;;;;5034806;28;20114;-74
2022/09/23 09:53:34;;;;;;;13.93;8.77;;;13.20;99.90;;;;;;5047810;28;20028;-74
2022/09/23 09:56:06;;;;;;;12.15;9.00;;;13.30;99.90;;;;;;5049079;28;20043;-74
2022/09/23 09:58:40;;;;;;;12.35;9.50;;;13.40;99.90;;;;;;5060905;28;20037;-74
2022/09/23 10:01:06;;;;;;;12.68;9.57;;;13.30;99.90;;;;;;5040060;28;20397;-73
2022/09/23 10:03:38;;;;;;;12.43;8.20;;;13.40;99.90;;;;;;5035103;28;20113;-73
2022/09/23 10:06:19;;;;;;;13.55;8.43;;;13.50;99.90;;;;;;5051725;28;20439;-74
2022/09/23 10:09:06;;;;;;;11.50;8.30;;;13.50;99.90;;;;;;5034673;28;20041;-74
2022/09/23 10:11:32;;;;;;;11.55;8.07;;;13.50;99.90;;;;;;5051317;28;20438;-74
2022/09/23 10:14:11;;;;;;;11.60;8.25;;;13.50;99.90;;;;;;5047331;28;20497;-73
2022/09/23 10:16:40;;;;;;;12.32;8.45;;;13.60;99.90;;;;;;5047496;28;20049;-74
2022/09/23 10:19:25;;;;;;;13.10;8.60;;;13.60;99.90;;;;;;5051245;28;20041;-73
2022/09/23 10:22:01;;;;;;;14.25;8.65;;;13.60;99.90;;;;;;5028627;28;20449;-74
2022/09/23 10:24:31;;;;;;;27.38;10.55;;;13.60;99.90;;;;;;5031991;28;20191;-75
2022/09/23 10:27:06;;;;;;;10.57;8.20;;;13.70;99.90;;;;;;5049536;28;20036;-73
2022/09/23 10:29:35;;;;;;;11.35;8.00;;;13.70;99.90;;;;;;5034908;28;20123;-74
2022/09/23 10:32:22;;;;;;;11.43;8.23;;;13.80;99.90;;;;;;5050977;28;20098;-74
2022/09/23 10:34:55;;;;;;;10.95;7.97;;;13.80;99.90;;;;;;5051884;28;20123;-74
2022/09/23 10:37:37;;;;;;;12.25;8.10;;;13.90;99.90;;;;;;5051303;28;20382;-74
2022/09/23 10:46:44;;;;;;;10.80;8.18;;;14.00;99.90;;;;;;5051409;28;20087;-73
2022/09/23 10:49:31;;;;;;;12.50;8.48;;;14.00;99.90;;;;;;5051722;28;20052;-74
2022/09/23 10:52:24;;;;;;;12.02;7.68;;;14.10;99.90;;;;;;5050999;28;20401;-74
2022/09/23 10:55:03;;;;;;;13.70;8.43;;;14.10;99.90;;;;;;5051114;28;20091;-73
2022/09/23 10:57:49;;;;;;;12.30;8.80;;;14.20;99.90;;;;;;5051193;28;20048;-73
2022/09/23 11:00:22;;;;;;;12.50;8.57;;;14.20;99.90;;;;;;5051326;28;20033;-74
2022/09/23 11:03:23;;;;;;;12.15;8.73;;;14.30;99.90;;;;;;5051116;28;20045;-74
2022/09/23 11:06:24;;;;;;;13.52;8.82;;;14.30;99.90;;;;;;5048721;28;20045;-73
2022/09/23 11:09:21;;;;;;;10.55;7.95;;;14.30;99.90;;;;;;5051222;28;20060;-74
2022/09/23 11:12:00;;;;;;;11.73;8.30;;;14.40;99.90;;;;;;5034418;28;20056;-74
2022/09/23 11:14:47;;;;;;;11.00;8.55;;;14.40;99.90;;;;;;5043193;28;20053;-73
2022/09/23 11:17:33;;;;;;;12.38;8.35;;;14.40;99.90;;;;;;5062126;28;20048;-74
2022/09/23 11:20:11;;;;;;;12.07;8.80;;;14.40;99.90;;;;;;5042799;28;20087;-73
2022/09/23 11:22:42;;;;;;;10.88;8.35;;;14.50;99.90;;;;;;5047029;28;20446;-73
2022/09/23 11:25:38;;;;;;;12.13;8.75;;;14.50;99.90;;;;;;5055570;28;20500;-73
2022/09/23 11:28:16;;;;;;;12.80;9.18;;;14.50;99.90;;;;;;5050233;28;20561;-73
2022/09/23 11:31:13;;;;;;;13.35;9.43;;;14.50;99.90;;;;;;5048248;28;20045;-73
2022/09/23 11:34:07;;;;;;;12.40;8.98;;;14.60;99.90;;;;;;5034754;28;20076;-73
2022/09/23 11:36:39;;;;;;;11.90;8.57;;;14.60;99.90;;;;;;5051994;28;20519;-73
2022/09/23 11:39:13;;;;;;;12.43;8.50;;;14.60;99.90;;;;;;5055009;28;20511;-73
2022/09/23 11:41:42;;;;;;;11.15;8.50;;;14.70;99.90;;;;;;5053335;28;20039;-73
2022/09/23 11:44:16;;;;;;;13.15;9.07;;;14.70;99.90;;;;;;5052987;28;20092;-74
2022/09/23 11:47:06;;;;;;;12.02;8.32;;;14.70;99.90;;;;;;5071299;28;20049;-73
2022/09/23 11:49:38;;;;;;;12.32;8.52;;;14.70;99.90;;;;;;5034792;28;20033;-73
2022/09/23 11:52:18;;;;;;;12.75;10.45;;;14.70;99.90;;;;;;5034988;28;20040;-73
2022/09/23 11:55:02;;;;;;;12.55;8.93;;;14.70;99.90;;;;;;5053266;28;20047;-73
2022/09/23 11:57:32;;;;;;;13.65;8.85;;;14.70;99.90;;;;;;5036637;28;20543;-74
2022/09/23 12:00:06;;;;;;;12.38;9.02;;;14.80;99.90;;;;;;5053916;28;20037;-74
2022/09/23 12:03:05;;;;;;;12.48;8.65;;;14.70;99.90;;;;;;5053991;28;20388;-73
2022/09/23 12:06:06;;;;;;;12.82;9.32;;;14.80;99.90;;;;;;5054003;28;20041;-73
2022/09/23 12:08:36;;;;;;;14.32;9.18;;;14.80;99.90;;;;;;5016801;28;20049;-73
2022/09/23 12:11:15;;;;;;;12.27;9.60;;;14.80;99.90;;;;;;5037963;28;20041;-73
2022/09/23 12:14:31;;;;;;;12.57;9.07;;;14.80;99.90;;;;;;5051525;28;20045;-73
2022/09/23 12:17:18;;;;;;;13.02;8.95;;;14.80;99.90;;;;;;5002611;28;20088;-74
2022/09/23 12:20:14;;;;;;;13.82;9.07;;;14.80;99.90;;;;;;5034390;28;20048;-73
2022/09/23 12:22:44;;;;;;;11.95;9.35;;;14.90;99.90;;;;;;5052641;28;20448;-73
2022/09/23 12:25:32;;;;;;;15.80;10.05;;;14.90;99.90;;;;;;5053313;28;20044;-74
2022/09/23 12:28:12;;;;;;;13.98;10.32;;;14.90;99.90;;;;;;5047527;28;20124;-74
2022/09/23 12:30:40;;;;;;;13.57;9.60;;;14.90;99.90;;;;;;5066182;28;20033;-74
2022/09/23 12:33:27;;;;;;;13.98;10.00;;;14.90;99.90;;;;;;5035916;28;20516;-74
2022/09/23 12:36:00;;;;;;;14.40;10.55;;;15.00;99.90;;;;;;5035800;28;20033;-74
2022/09/23 12:38:39;;;;;;;12.00;9.73;;;14.90;99.90;;;;;;5034081;28;20029;-74
2022/09/23 12:41:36;;;;;;;13.45;10.77;;;14.90;99.90;;;;;;5053353;28;20048;-79
2022/09/23 12:44:11;;;;;;;14.13;9.95;;;14.90;99.90;;;;;;5053384;28;20533;-77
2022/09/23 12:46:38;;;;;;;14.18;10.30;;;15.00;99.90;;;;;;5036357;28;20049;-74
2022/09/23 12:49:09;;;;;;;12.43;9.77;;;15.00;99.90;;;;;;5050380;28;20060;-74
2022/09/23 12:51:35;;;;;;;13.98;10.32;;;15.00;99.90;;;;;;5053193;28;20067;-74
2022/09/23 12:54:03;;;;;;;13.57;10.20;;;15.00;99.90;;;;;;5047637;28;20044;-74
2022/09/23 12:56:35;;;;;;;15.38;10.60;;;15.00;99.90;;;;;;5051255;28;20045;-74
2022/09/23 12:59:16;;;;;;;17.63;10.98;;;15.00;99.90;;;;;;5047242;28;20102;-74
2022/09/23 13:01:43;;;;;;;11.60;9.68;;;15.00;99.90;;;;;;5046180;28;20131;-74
2022/09/23 13:07:32;;;;;;;14.55;10.90;;;15.10;99.90;;;;;;5068167;28;20049;-74
2022/09/23 13:10:23;;;;;;;12.93;10.18;;;15.10;99.90;;;;;;5052608;28;20044;-75
2022/09/23 13:12:50;;;;;;;13.40;10.10;;;15.10;99.90;;;;;;5050854;28;20041;-74
2022/09/23 13:15:36;;;;;;;14.15;10.43;;;15.10;99.90;;;;;;5052403;28;20057;-74
2022/09/23 13:18:19;;;;;;;27.73;15.95;;;15.20;99.90;;;;;;5050578;28;20123;-74
2022/09/23 13:20:47;;;;;;;17.02;12.25;;;15.20;99.90;;;;;;5049638;28;20510;-74